Old Tappan, New Jersey
Current Conditions -  °F | °C
As of 9:51 PM on Friday 21 Nov 2014 (Local Time) from KTEB Reporting Station
Clear Clear  
Wind Chill: 27°   Ceiling: Unl
Heat Index: 27°   Visibility: 10mi
Dew Point: 13°   Wind: 0mph
Humidity: 56%   Direction: NA
Pressure: 30.5"   Gusts: NA
Location:  41.0025°N, 74.0303°W
Report Text: KTEB 220251Z 00000KT 10SM CLR M03/M11 A3050 RMK AO2 SLP328 T10281106 51012
Loading
Personal Weather Stations






























Interactive Weather Map New forecast layout! Learn more

10-Day Weather Forecast

Advertisements
Track Severe Weather on mobile